This is the latest recevied weather packets stored in our database for station/object K1NOT-WX. If no packets are shown the sender has not sent any weather packets the latest 10 day(s).
| Time | Temp. | Humidity | Pressure | Rain* | Wind** | Luminosity | Snow |
|---|---|---|---|---|---|---|---|
| 1777886833 | 15.56° C | 62% | 1001 hPa | 0 mm | - | - | - |
| 1777885933 | 15.56° C | 63% | 1000.7 hPa | 0 mm | - | - | - |
| 1777885033 | 15.56° C | 61% | 1000.7 hPa | 0 mm | - | - | - |
| 1777884132 | 15.56° C | 63% | 1000.7 hPa | 0 mm | - | - | - |
| 1777883233 | 15.56° C | 60% | 1000.7 hPa | 0 mm | - | - | - |
| 1777882333 | 16.11° C | 59% | 1001 hPa | 0 mm | - | - | - |
| 1777881433 | 17.22° C | 55% | 1001 hPa | 0 mm | - | - | - |
| 1777880533 | 16.67° C | 57% | 1001 hPa | 0 mm | - | - | - |
| 1777879632 | 16.67° C | 56% | 1000.7 hPa | 0 mm | - | - | - |
| 1777878733 | 16.67° C | 55% | 1001 hPa | 0 mm | - | - | - |
| 1777877833 | 17.22° C | 54% | 1001 hPa | 0 mm | - | - | - |
| 1777876932 | 16.67° C | 57% | 1001 hPa | 0 mm | - | - | - |
| 1777876032 | 16.11° C | 59% | 1001 hPa | 0 mm | - | - | - |
| 1777875132 | 16.67° C | 55% | 1001 hPa | 0 mm | - | - | - |
| 1777874232 | 17.22° C | 54% | 1000.7 hPa | 0 mm | - | - | - |
| 1777873332 | 17.22° C | 55% | 1001 hPa | 0 mm | - | - | - |
| 1777872432 | 18.33° C | 50% | 1001 hPa | 0 mm | - | - | - |
| 1777871532 | 18.33° C | 49% | 1001 hPa | 0 mm | - | - | - |
| 1777870632 | 18.89° C | 45% | 1000.7 hPa | 0 mm | - | - | - |
| 1777869732 | 20° C | 41% | 1001 hPa | 0 mm | - | - | - |
| 1777868832 | 21.11° C | 37% | 1000.7 hPa | 0 mm | - | - | - |
| 1777867932 | 21.11° C | 37% | 1001 hPa | 0 mm | - | - | - |
| 1777867032 | 21.67° C | 35% | 1000.7 hPa | 0 mm | - | - | - |
| 1777866132 | 21.67° C | 35% | 1000.7 hPa | 0 mm | - | - | - |
| 1777865232 | 21.67° C | 35% | 1000.7 hPa | 0 mm | - | - | - |
* Rain latest hour (hover to see other rain measurements)
** Current wind speed in m/s (hover to see current wind gust speed)